createdAt,value
2018-09-21T00:01:09.601Z,3.58
2018-09-21T00:03:40.294Z,3.75
2018-09-21T00:06:10.984Z,3.85
2018-09-21T00:08:41.653Z,3.83
2018-09-21T00:11:12.341Z,4.28
2018-09-21T00:13:43.021Z,4.37
2018-09-21T00:16:13.713Z,4.00
2018-09-21T00:18:44.368Z,3.77
2018-09-21T00:21:15.178Z,3.60
2018-09-21T00:23:45.829Z,4.00
2018-09-21T00:26:16.525Z,3.90
2018-09-21T00:28:47.221Z,4.05
2018-09-21T00:31:17.928Z,4.45
2018-09-21T00:33:48.593Z,4.10
2018-09-21T00:36:19.657Z,3.50
2018-09-21T00:38:50.325Z,3.92
2018-09-21T00:41:21.037Z,4.03
2018-09-21T00:43:51.731Z,3.75
2018-09-21T00:46:22.776Z,3.75
2018-09-21T00:48:53.433Z,4.45
2018-09-21T00:51:24.133Z,3.92
2018-09-21T00:53:54.816Z,4.40
2018-09-21T00:56:25.532Z,4.10
2018-09-21T00:58:56.209Z,3.90
2018-09-21T01:01:26.915Z,4.25
2018-09-21T01:03:57.593Z,4.08
2018-09-21T01:06:28.280Z,4.10
2018-09-21T01:08:58.987Z,4.10
2018-09-21T01:11:29.641Z,4.22
2018-09-21T01:14:00.345Z,4.05
2018-09-21T01:16:31.014Z,4.08
2018-09-21T01:19:01.708Z,4.47
2018-09-21T01:21:32.367Z,3.70
2018-09-21T01:24:03.316Z,4.35
2018-09-21T01:26:34.030Z,5.25
2018-09-21T01:29:05.101Z,4.47
2018-09-21T01:31:35.829Z,4.65
2018-09-21T01:34:06.889Z,4.12
2018-09-21T01:36:37.578Z,4.50
2018-09-21T01:39:09.417Z,4.10
2018-09-21T01:41:40.113Z,4.65
2018-09-21T01:44:10.771Z,5.12
2018-09-21T01:46:41.501Z,4.20
2018-09-21T01:49:12.182Z,4.28
2018-09-21T01:51:42.889Z,4.30
2018-09-21T01:54:13.585Z,4.80
2018-09-21T01:56:44.269Z,4.53
2018-09-21T01:59:14.972Z,4.03
2018-09-21T02:01:45.853Z,4.37
2018-09-21T02:04:16.733Z,4.40
2018-09-21T02:06:47.445Z,4.30
2018-09-21T02:09:18.113Z,4.50
2018-09-21T02:11:48.845Z,4.50
2018-09-21T02:14:19.501Z,4.15
2018-09-21T02:16:50.644Z,5.00
2018-09-21T02:19:21.652Z,4.35
2018-09-21T02:21:52.579Z,4.10
2018-09-21T02:24:23.544Z,3.95
2018-09-21T02:26:54.236Z,4.47
2018-09-21T02:29:24.962Z,4.65
2018-09-21T02:31:55.657Z,4.60
2018-09-21T02:34:26.419Z,4.83
2018-09-21T02:36:57.113Z,5.15
2018-09-21T02:39:27.776Z,4.70
2018-09-21T02:41:58.668Z,4.97
2018-09-21T02:44:29.335Z,4.83
2018-09-21T02:47:00.024Z,4.50
2018-09-21T02:49:30.729Z,3.95
2018-09-21T02:52:01.431Z,4.37
2018-09-21T02:54:32.111Z,4.33
2018-09-21T02:57:02.845Z,4.45
2018-09-21T02:59:33.536Z,4.90
2018-09-21T03:02:04.221Z,4.87
2018-09-21T03:04:39.124Z,4.72
2018-09-21T03:07:09.781Z,4.67
2018-09-21T03:09:40.469Z,4.85
2018-09-21T03:12:11.132Z,4.80
2018-09-21T03:14:41.823Z,4.87
2018-09-21T03:17:12.516Z,4.00
2018-09-21T03:19:43.200Z,4.55
2018-09-21T03:22:13.891Z,4.08
2018-09-21T03:24:44.571Z,4.80
2018-09-21T03:27:15.252Z,4.33
2018-09-21T03:29:45.969Z,4.55
2018-09-21T03:32:16.678Z,4.65
2018-09-21T03:34:47.395Z,4.75
2018-09-21T03:37:18.264Z,5.05
2018-09-21T03:39:48.953Z,4.40
2018-09-21T03:42:19.626Z,4.30
2018-09-21T03:44:50.318Z,3.87
2018-09-21T03:47:21.314Z,4.92
2018-09-21T03:49:52.361Z,4.97
2018-09-21T03:52:23.082Z,4.40
2018-09-21T03:54:53.916Z,3.62
2018-09-21T03:57:24.589Z,4.60
2018-09-21T03:59:55.279Z,4.10
2018-09-21T04:02:25.978Z,4.08
2018-09-21T04:04:56.924Z,3.85
2018-09-21T04:07:27.769Z,4.78
2018-09-21T04:09:58.455Z,4.28
2018-09-21T04:12:29.142Z,4.80
2018-09-21T04:14:59.840Z,4.25
2018-09-21T04:17:30.501Z,4.10
2018-09-21T04:20:01.194Z,4.22
2018-09-21T04:22:32.207Z,4.40
2018-09-21T04:25:03.733Z,3.65
2018-09-21T04:27:34.438Z,4.10
2018-09-21T04:30:05.339Z,4.30
2018-09-21T04:32:36.024Z,5.20
2018-09-21T04:35:06.742Z,4.37
2018-09-21T04:37:37.402Z,4.40
2018-09-21T04:40:08.472Z,4.80
2018-09-21T04:42:39.366Z,4.30
2018-09-21T04:45:10.033Z,4.87
2018-09-21T04:47:41.041Z,4.47
2018-09-21T04:50:11.974Z,4.50
2018-09-21T04:52:42.662Z,4.55
2018-09-21T04:55:13.356Z,4.85
2018-09-21T04:57:44.055Z,4.70
2018-09-21T05:00:14.741Z,4.22
2018-09-21T05:02:45.433Z,4.47
2018-09-21T05:05:16.111Z,4.90
2018-09-21T05:07:46.491Z,5.40
2018-09-21T05:10:19.164Z,4.83
2018-09-21T05:12:50.369Z,4.47
2018-09-21T05:15:21.031Z,4.75
2018-09-21T05:17:51.888Z,4.47
2018-09-21T05:20:22.584Z,4.12
2018-09-21T05:22:53.245Z,4.60
2018-09-21T05:25:23.959Z,5.08
2018-09-21T05:27:54.661Z,5.30
2018-09-21T05:30:25.352Z,4.90
2018-09-21T05:32:56.008Z,5.30
2018-09-21T05:35:26.721Z,4.92
2018-09-21T05:37:57.402Z,5.40
2018-09-21T05:40:28.168Z,5.63
2018-09-21T05:42:58.885Z,5.45
2018-09-21T05:45:29.301Z,5.23
2018-09-21T05:47:59.969Z,5.37
2018-09-21T05:50:30.376Z,4.80
2018-09-21T05:53:00.747Z,4.60
2018-09-21T05:55:31.148Z,5.50
2018-09-21T05:58:02.181Z,5.15
2018-09-21T06:00:32.626Z,4.80
2018-09-21T06:03:03.013Z,5.10
2018-09-21T06:05:33.706Z,4.60
2018-09-21T06:08:04.167Z,4.80
2018-09-21T06:10:35.050Z,5.25
2018-09-21T06:13:05.445Z,4.70
2018-09-21T06:15:35.845Z,4.90
2018-09-21T06:18:06.554Z,5.12
2018-09-21T06:20:36.920Z,5.00
2018-09-21T06:23:07.437Z,4.80
2018-09-21T06:25:38.120Z,6.30
2018-09-21T06:28:08.544Z,4.70
2018-09-21T06:30:39.272Z,5.30
2018-09-21T06:33:09.677Z,5.43
2018-09-21T06:35:40.345Z,5.47
2018-09-21T06:38:10.740Z,5.50
2018-09-21T06:40:41.443Z,5.60
2018-09-21T06:43:12.197Z,5.17
2018-09-21T06:45:42.897Z,5.22
2018-09-21T06:48:13.618Z,4.97
2018-09-21T06:50:44.061Z,4.97
2018-09-21T06:53:14.978Z,4.42
2018-09-21T06:55:45.362Z,5.10
2018-09-21T06:58:15.776Z,4.60
2018-09-21T07:00:46.365Z,4.30
2018-09-21T07:03:16.753Z,4.67
2018-09-21T07:05:47.148Z,4.13
2018-09-21T07:08:17.555Z,4.10
2018-09-21T07:10:48.244Z,3.70
2018-09-21T07:13:18.640Z,3.87
2018-09-21T07:15:49.067Z,4.20
2018-09-21T07:18:19.633Z,3.80
2018-09-21T07:20:50.045Z,3.93
2018-09-21T07:23:20.452Z,3.70
2018-09-21T07:25:50.820Z,4.23
2018-09-21T07:28:21.284Z,3.70
2018-09-21T07:30:51.676Z,3.80
2018-09-21T07:33:22.268Z,3.80
2018-09-21T07:35:52.717Z,3.67
2018-09-21T07:38:23.156Z,3.67
2018-09-21T07:40:53.524Z,3.60
2018-09-21T07:43:23.921Z,3.50
2018-09-21T07:45:55.325Z,3.30
2018-09-21T07:48:26.725Z,3.70
2018-09-21T07:50:57.305Z,3.73
2018-09-21T07:53:27.928Z,3.60
2018-09-21T07:55:58.340Z,3.50
2018-09-21T07:58:28.724Z,3.30
2018-09-21T08:00:59.121Z,3.17
2018-09-21T08:03:29.793Z,3.85
2018-09-21T08:06:00.254Z,3.40
2018-09-21T08:08:30.661Z,3.80
2018-09-21T08:11:01.059Z,2.80
2018-09-21T08:13:31.465Z,3.17
2018-09-21T08:16:01.868Z,3.30
2018-09-21T08:18:32.265Z,3.20
2018-09-21T08:21:02.853Z,3.30
2018-09-21T08:23:33.223Z,3.00
2018-09-21T08:26:03.631Z,2.83
2018-09-21T08:28:34.033Z,2.77
2018-09-21T08:31:04.723Z,2.77
2018-09-21T08:33:35.093Z,3.50
2018-09-21T08:36:05.536Z,3.30
2018-09-21T08:38:36.132Z,3.03
2018-09-21T08:41:06.712Z,2.77
2018-09-21T08:43:37.098Z,3.23
2018-09-21T08:46:07.697Z,3.13
2018-09-21T08:48:38.068Z,3.37
2018-09-21T08:51:08.460Z,3.03
2018-09-21T08:53:38.869Z,3.03
2018-09-21T08:56:09.269Z,2.90
2018-09-21T08:58:39.658Z,2.47
2018-09-21T09:01:10.085Z,2.70
2018-09-21T09:03:40.458Z,2.73
2018-09-21T09:06:10.864Z,3.03
2018-09-21T09:08:41.232Z,2.80
2018-09-21T09:11:11.622Z,2.20
2018-09-21T09:13:41.994Z,2.13
2018-09-21T09:16:12.412Z,2.00
2018-09-21T09:18:42.786Z,2.33
2018-09-21T09:21:13.501Z,3.00
2018-09-21T09:23:43.870Z,2.10
2018-09-21T09:26:14.269Z,2.10
2018-09-21T09:28:44.700Z,1.47
2018-09-21T09:31:15.064Z,1.17
2018-09-21T09:33:45.460Z,1.30
2018-09-21T09:36:15.860Z,0.97
2018-09-21T09:38:46.265Z,0.93
2018-09-21T09:41:16.628Z,0.90
2018-09-21T09:43:47.016Z,1.10
2018-09-21T09:46:17.405Z,1.10
2018-09-21T09:48:48.086Z,1.40
2018-09-21T09:51:18.914Z,1.17
2018-09-21T09:53:49.564Z,1.32
2018-09-21T09:56:20.240Z,1.10
2018-09-21T09:58:50.888Z,1.40
2018-09-21T10:01:21.593Z,1.45
2018-09-21T10:03:52.301Z,1.10
2018-09-21T10:06:23.141Z,1.72
2018-09-21T10:08:53.805Z,1.90
2018-09-21T10:11:24.509Z,1.40
2018-09-21T10:13:55.177Z,1.42
2018-09-21T10:16:25.891Z,1.30
2018-09-21T10:18:56.740Z,1.80
2018-09-21T10:21:27.442Z,1.17
2018-09-21T10:23:58.136Z,1.47
2018-09-21T10:26:29.031Z,1.50
2018-09-21T10:28:59.698Z,2.22
2018-09-21T10:31:30.413Z,1.90
2018-09-21T10:34:01.306Z,1.85
2018-09-21T10:36:31.990Z,1.22
2018-09-21T10:39:02.719Z,1.40
2018-09-21T10:41:33.600Z,1.62
2018-09-21T10:44:04.298Z,1.40
2018-09-21T10:46:35.095Z,1.20
2018-09-21T10:49:05.814Z,1.70
2018-09-21T10:51:36.572Z,1.40
2018-09-21T10:54:07.847Z,2.15
2018-09-21T10:56:38.539Z,2.12
2018-09-21T10:59:09.224Z,1.25
2018-09-21T11:01:39.880Z,1.40
2018-09-21T11:04:10.572Z,1.60
2018-09-21T11:06:41.231Z,1.62
2018-09-21T11:09:12.231Z,2.22
2018-09-21T11:11:42.922Z,2.02
2018-09-21T11:14:13.592Z,1.67
2018-09-21T11:16:44.288Z,1.87
2018-09-21T11:19:14.948Z,1.92
2018-09-21T11:21:45.628Z,1.70
2018-09-21T11:24:16.301Z,1.80
2018-09-21T11:26:47.006Z,1.80
2018-09-21T11:29:17.737Z,1.80
2018-09-21T11:31:48.452Z,1.72
2018-09-21T11:34:19.120Z,2.02
2018-09-21T11:36:49.812Z,1.80
2018-09-21T11:39:21.272Z,1.75
2018-09-21T11:41:51.928Z,1.90
2018-09-21T11:44:22.624Z,1.57
2018-09-21T11:46:53.459Z,2.08
2018-09-21T11:49:24.195Z,1.85
2018-09-21T11:51:54.885Z,2.33
2018-09-21T11:54:25.558Z,1.95
2018-09-21T11:56:56.268Z,1.90
2018-09-21T11:59:27.065Z,1.95
2018-09-21T12:01:57.815Z,1.65
2018-09-21T12:04:35.169Z,2.17
2018-09-21T12:07:05.905Z,2.27
2018-09-21T12:09:36.568Z,1.57
2018-09-21T12:12:07.264Z,1.77
2018-09-21T12:14:37.935Z,2.10
2018-09-21T12:17:08.690Z,2.10
2018-09-21T12:19:39.506Z,2.72
2018-09-21T12:22:10.229Z,1.92
2018-09-21T12:24:41.055Z,2.20
2018-09-21T12:27:11.792Z,1.60
2018-09-21T12:29:42.500Z,2.30
2018-09-21T12:32:13.227Z,2.05
2018-09-21T12:34:43.900Z,2.30
2018-09-21T12:37:14.609Z,1.60
2018-09-21T12:39:45.290Z,1.95
2018-09-21T12:42:15.965Z,2.27
2018-09-21T12:44:46.734Z,1.50
2018-09-21T12:47:17.526Z,1.10
2018-09-21T12:49:48.192Z,1.07
2018-09-21T12:52:19.305Z,0.82
2018-09-21T12:54:50.004Z,0.62
2018-09-21T12:57:20.687Z,0.40
2018-09-21T12:59:51.400Z,0.80
2018-09-21T13:02:22.053Z,0.70
2018-09-21T13:04:52.956Z,0.65
2018-09-21T13:07:23.681Z,0.70
2018-09-21T13:09:54.349Z,0.93
2018-09-21T13:12:25.001Z,0.60
2018-09-21T13:14:55.684Z,0.88
2018-09-21T13:17:26.389Z,0.80
2018-09-21T13:19:57.085Z,0.70
2018-09-21T13:22:27.754Z,0.65
2018-09-21T13:24:58.483Z,0.80
2018-09-21T13:27:29.345Z,0.70
2018-09-21T13:30:00.031Z,0.60
2018-09-21T13:32:30.680Z,0.82
2018-09-21T13:35:01.371Z,0.80
2018-09-21T13:37:32.014Z,0.75
2018-09-21T13:40:03.392Z,0.53
2018-09-21T13:42:34.071Z,1.12
2018-09-21T13:45:05.320Z,0.80
2018-09-21T13:47:35.965Z,0.80
2018-09-21T13:50:07.350Z,1.00
2018-09-21T13:52:38.190Z,0.60
2018-09-21T13:55:09.001Z,0.70
2018-09-21T13:57:39.639Z,0.60
2018-09-21T14:00:11.737Z,1.05
2018-09-21T14:02:43.050Z,0.60
2018-09-21T14:05:13.753Z,0.60
2018-09-21T14:07:44.404Z,0.90
2018-09-21T14:10:15.075Z,0.60
2018-09-21T14:12:45.724Z,0.57
2018-09-21T14:15:16.408Z,0.75
2018-09-21T14:17:47.444Z,0.85
2018-09-21T14:20:18.104Z,0.72
2018-09-21T14:22:48.813Z,0.75
2018-09-21T14:25:19.512Z,0.93
2018-09-21T14:27:50.184Z,0.85
2018-09-21T14:30:20.841Z,0.95
2018-09-21T14:32:51.553Z,0.65
2018-09-21T14:35:22.237Z,0.75
2018-09-21T14:37:52.919Z,0.90
2018-09-21T14:40:23.767Z,0.60
2018-09-21T14:42:54.444Z,0.70
2018-09-21T14:45:25.474Z,0.60
2018-09-21T14:47:56.176Z,0.70
2018-09-21T14:50:27.061Z,0.78
2018-09-21T14:52:57.944Z,1.00
2018-09-21T14:55:28.616Z,0.70
2018-09-21T14:57:59.292Z,0.60
2018-09-21T15:00:29.977Z,0.60
2018-09-21T15:03:00.674Z,0.50
2018-09-21T15:05:31.331Z,0.42
2018-09-21T15:08:02.010Z,0.50
2018-09-21T15:10:32.663Z,0.60
2018-09-21T15:13:03.353Z,0.40
2018-09-21T15:15:34.045Z,0.50
2018-09-21T15:18:04.714Z,0.40
2018-09-21T15:20:35.397Z,0.65
2018-09-21T15:23:06.220Z,0.70
2018-09-21T15:25:36.956Z,0.30
2018-09-21T15:28:07.993Z,0.50
2018-09-21T15:30:38.687Z,1.75
2018-09-21T15:33:09.388Z,0.70
2018-09-21T15:35:40.073Z,0.65
2018-09-21T15:38:10.712Z,0.80
2018-09-21T15:40:41.408Z,0.40
2018-09-21T15:43:12.110Z,0.40
2018-09-21T15:45:42.937Z,0.60
2018-09-21T15:48:13.586Z,0.75
2018-09-21T15:50:44.276Z,0.60
2018-09-21T15:53:14.940Z,1.02
2018-09-21T15:55:45.617Z,0.60
2018-09-21T15:58:16.284Z,0.82
2018-09-21T16:00:46.963Z,0.90
2018-09-21T16:03:17.600Z,0.47
2018-09-21T16:05:48.318Z,0.60
2018-09-21T16:08:19.164Z,0.57
2018-09-21T16:10:50.348Z,0.65
2018-09-21T16:13:21.188Z,0.70
2018-09-21T16:15:52.023Z,0.68
2018-09-21T16:18:22.689Z,0.93
2018-09-21T16:20:53.518Z,0.72
2018-09-21T16:23:24.177Z,0.90
2018-09-21T16:25:54.862Z,0.98
2018-09-21T16:28:25.529Z,0.62
2018-09-21T16:30:56.232Z,1.20
2018-09-21T16:33:26.901Z,0.80
2018-09-21T16:35:57.625Z,0.70
2018-09-21T16:38:28.447Z,0.90
2018-09-21T16:40:59.218Z,0.93
2018-09-21T16:43:29.869Z,0.68
2018-09-21T16:46:00.554Z,1.00
2018-09-21T16:48:31.237Z,0.98
2018-09-21T16:51:02.119Z,0.80
2018-09-21T16:53:32.985Z,0.80
2018-09-21T16:56:03.988Z,0.72
2018-09-21T16:58:34.681Z,1.10
2018-09-21T17:01:05.365Z,0.90
2018-09-21T17:03:36.044Z,1.15
2018-09-21T17:06:06.740Z,0.85
2018-09-21T17:08:37.424Z,0.90
2018-09-21T17:11:08.088Z,0.68
2018-09-21T17:13:38.981Z,1.10
2018-09-21T17:16:09.652Z,0.80
2018-09-21T17:18:40.448Z,1.32
2018-09-21T17:21:11.302Z,0.85
2018-09-21T17:23:42.148Z,1.07
2018-09-21T17:26:12.857Z,0.80
2018-09-21T17:28:43.524Z,0.80
2018-09-21T17:31:14.252Z,0.70
2018-09-21T17:33:44.919Z,1.07
2018-09-21T17:36:15.595Z,0.90
2018-09-21T17:38:46.241Z,0.85
2018-09-21T17:41:16.918Z,0.80
2018-09-21T17:43:47.568Z,1.07
2018-09-21T17:46:18.264Z,1.05
2018-09-21T17:48:48.938Z,0.88
2018-09-21T17:51:19.637Z,1.05
2018-09-21T17:53:50.301Z,1.12
2018-09-21T17:56:20.981Z,0.95
2018-09-21T17:58:51.665Z,0.93
2018-09-21T18:01:22.360Z,0.88
2018-09-21T18:03:54.011Z,0.88
2018-09-21T18:06:24.630Z,0.90
2018-09-21T18:08:55.428Z,0.88
2018-09-21T18:11:26.088Z,0.80
2018-09-21T18:13:57.698Z,0.95
2018-09-21T18:16:29.108Z,1.17
2018-09-21T18:19:00.148Z,0.80
2018-09-21T18:21:30.981Z,0.75
2018-09-21T18:24:01.641Z,0.90
2018-09-21T18:26:32.331Z,1.00
2018-09-21T18:29:02.994Z,0.85
2018-09-21T18:31:34.428Z,1.00
2018-09-21T18:34:05.258Z,0.90
2018-09-21T18:36:35.948Z,0.82
2018-09-21T18:39:07.152Z,0.90
2018-09-21T18:41:37.845Z,0.90
2018-09-21T18:44:08.498Z,1.02
2018-09-21T18:46:39.180Z,1.15
2018-09-21T18:49:09.855Z,0.88
2018-09-21T18:51:40.525Z,0.78
2018-09-21T18:54:11.199Z,1.00
2018-09-21T18:56:41.868Z,0.82
2018-09-21T18:59:12.548Z,1.00
2018-09-21T19:01:43.216Z,1.02
2018-09-21T19:04:13.919Z,0.90
2018-09-21T19:06:44.568Z,1.15
2018-09-21T19:09:15.284Z,0.90
2018-09-21T19:11:45.942Z,0.80
2018-09-21T19:14:16.661Z,0.88
2018-09-21T19:16:47.317Z,0.98
2018-09-21T19:19:18.001Z,0.80
2018-09-21T19:21:48.651Z,1.12
2018-09-21T19:24:19.324Z,0.95
2018-09-21T19:26:49.985Z,0.98
2018-09-21T19:29:20.861Z,1.07
2018-09-21T19:31:51.560Z,0.80
2018-09-21T19:34:22.252Z,0.82
2018-09-21T19:36:52.891Z,0.70
2018-09-21T19:39:23.574Z,0.90
2018-09-21T19:41:54.281Z,0.80
2018-09-21T19:44:24.965Z,1.00
2018-09-21T19:46:55.653Z,1.07
2018-09-21T19:49:26.314Z,1.35
2018-09-21T19:51:56.997Z,1.15
2018-09-21T19:54:27.735Z,1.47
2018-09-21T19:56:58.624Z,1.05
2018-09-21T19:59:29.301Z,0.90
2018-09-21T20:02:00.042Z,1.27
2018-09-21T20:04:30.898Z,1.50
2018-09-21T20:07:01.593Z,0.70
2018-09-21T20:09:32.312Z,1.30
2018-09-21T20:12:03.022Z,1.67
2018-09-21T20:14:33.716Z,0.98
2018-09-21T20:17:04.700Z,1.42
2018-09-21T20:19:35.712Z,1.52
2018-09-21T20:22:07.878Z,1.27
2018-09-21T20:24:38.581Z,0.90
2018-09-21T20:27:09.240Z,1.10
2018-09-21T20:29:39.984Z,0.98
2018-09-21T20:32:16.110Z,1.10
2018-09-21T20:34:46.983Z,1.10
2018-09-21T20:37:17.706Z,1.42
2018-09-21T20:39:48.576Z,1.35
2018-09-21T20:42:19.248Z,1.77
2018-09-21T20:44:50.001Z,1.20
2018-09-21T20:47:20.801Z,0.90
2018-09-21T20:49:51.492Z,1.37
2018-09-21T20:52:22.361Z,1.17
2018-09-21T20:54:53.064Z,1.25
2018-09-21T20:57:23.727Z,1.22
2018-09-21T20:59:54.469Z,1.57
2018-09-21T21:02:25.138Z,1.80
2018-09-21T21:04:56.183Z,1.10
2018-09-21T21:07:26.855Z,1.37
2018-09-21T21:09:57.550Z,1.22
2018-09-21T21:12:28.207Z,1.50
2018-09-21T21:14:59.382Z,1.50
2018-09-21T21:17:30.241Z,1.40
2018-09-21T21:20:00.929Z,1.00
2018-09-21T21:22:31.591Z,1.32
2018-09-21T21:25:02.285Z,1.47
2018-09-21T21:27:32.999Z,1.37
2018-09-21T21:30:03.750Z,1.40
2018-09-21T21:32:34.444Z,1.20
2018-09-21T21:35:05.489Z,1.27
2018-09-21T21:37:36.435Z,1.60
2018-09-21T21:40:07.116Z,1.72
2018-09-21T21:42:37.812Z,2.12
2018-09-21T21:45:08.491Z,1.45
2018-09-21T21:47:39.168Z,1.62
2018-09-21T21:50:09.907Z,1.20
2018-09-21T21:52:40.900Z,1.30
2018-09-21T21:55:11.585Z,1.62
2018-09-21T21:57:42.284Z,1.40
2018-09-21T22:00:13.341Z,1.42
2018-09-21T22:02:44.049Z,1.30
2018-09-21T22:05:14.745Z,1.62
2018-09-21T22:07:45.413Z,1.77
2018-09-21T22:10:16.321Z,1.65
2018-09-21T22:12:52.384Z,1.90
2018-09-21T22:15:23.473Z,2.92
2018-09-21T22:17:54.128Z,1.87
2018-09-21T22:20:24.829Z,1.92
2018-09-21T22:22:55.488Z,1.77
2018-09-21T22:25:26.408Z,2.12
2018-09-21T22:27:57.060Z,1.98
2018-09-21T22:30:27.976Z,1.27
2018-09-21T22:32:58.665Z,1.20
2018-09-21T22:35:29.345Z,1.37
2018-09-21T22:38:00.008Z,1.55
2018-09-21T22:40:30.708Z,2.00
2018-09-21T22:43:01.369Z,2.27
2018-09-21T22:45:32.082Z,2.02
2018-09-21T22:48:02.794Z,2.17
2018-09-21T22:50:33.453Z,1.27
2018-09-21T22:53:04.144Z,1.95
2018-09-21T22:55:34.795Z,1.32
2018-09-21T22:58:05.508Z,1.40
2018-09-21T23:00:36.174Z,1.25
2018-09-21T23:03:06.900Z,1.90
2018-09-21T23:05:37.554Z,1.27
2018-09-21T23:08:08.280Z,1.25
2018-09-21T23:10:38.948Z,1.50
2018-09-21T23:13:09.650Z,1.77
2018-09-21T23:15:40.345Z,2.22
2018-09-21T23:18:11.040Z,1.55
2018-09-21T23:20:41.733Z,1.50
2018-09-21T23:23:12.488Z,1.80
2018-09-21T23:25:43.194Z,1.30
2018-09-21T23:28:13.880Z,1.42
2018-09-21T23:30:44.583Z,2.17
2018-09-21T23:33:15.284Z,2.02
2018-09-21T23:35:45.969Z,1.35
2018-09-21T23:38:16.688Z,1.40
2018-09-21T23:40:47.365Z,1.60
2018-09-21T23:43:18.091Z,1.98
2018-09-21T23:45:48.976Z,1.45
2018-09-21T23:48:19.645Z,1.57
2018-09-21T23:50:50.352Z,1.92
2018-09-21T23:53:21.231Z,1.52
2018-09-21T23:55:51.926Z,1.57
2018-09-21T23:58:22.724Z,1.42
